createdAt,value
2023-05-19T00:01:31.270Z,3.63
2023-05-19T00:04:02.713Z,3.80
2023-05-19T00:06:32.820Z,4.13
2023-05-19T00:09:04.201Z,3.97
2023-05-19T00:11:31.855Z,4.33
2023-05-19T00:14:00.809Z,4.20
2023-05-19T00:16:30.738Z,3.63
2023-05-19T00:19:02.530Z,3.43
2023-05-19T00:21:31.124Z,3.90
2023-05-19T00:23:58.954Z,3.83
2023-05-19T00:26:27.382Z,3.70
2023-05-19T00:28:54.852Z,4.13
2023-05-19T00:31:21.873Z,3.80
2023-05-19T00:33:48.857Z,5.07
2023-05-19T00:36:15.827Z,4.33
2023-05-19T00:38:42.730Z,3.90
2023-05-19T00:41:09.644Z,3.80
2023-05-19T00:43:37.903Z,4.60
2023-05-19T00:46:04.842Z,4.37
2023-05-19T00:48:31.701Z,3.80
2023-05-19T00:51:04.573Z,5.27
2023-05-19T00:53:34.162Z,3.63
2023-05-19T00:56:02.836Z,3.93
2023-05-19T00:58:32.406Z,4.13
2023-05-19T01:01:06.755Z,3.97
2023-05-19T01:03:35.963Z,3.93
2023-05-19T01:06:07.330Z,4.43
2023-05-19T01:08:36.414Z,5.63
2023-05-19T01:11:04.382Z,4.87
2023-05-19T01:13:32.010Z,4.60
2023-05-19T01:16:07.519Z,4.13
2023-05-19T01:18:46.351Z,4.70
2023-05-19T01:22:15.272Z,4.43
2023-05-19T01:25:17.584Z,4.27
2023-05-19T01:28:21.486Z,3.77
2023-05-19T01:30:54.324Z,4.23
2023-05-19T01:33:24.225Z,4.07
2023-05-19T01:35:53.728Z,4.20
2023-05-19T01:38:22.313Z,4.13
2023-05-19T01:40:51.976Z,4.43
2023-05-19T01:43:23.788Z,4.07
2023-05-19T01:45:53.473Z,3.83
2023-05-19T01:48:21.336Z,4.13
2023-05-19T01:50:48.491Z,4.50
2023-05-19T01:53:15.549Z,4.07
2023-05-19T01:55:47.863Z,3.87
2023-05-19T01:58:22.716Z,4.17
2023-05-19T02:01:02.747Z,4.37
2023-05-19T02:04:06.874Z,4.77
2023-05-19T02:06:44.241Z,4.03
2023-05-19T02:09:16.196Z,4.13
2023-05-19T02:11:54.690Z,4.13
2023-05-19T02:14:41.594Z,4.33
2023-05-19T02:17:12.810Z,4.03
2023-05-19T02:19:40.168Z,4.30
2023-05-19T02:22:07.276Z,4.17
2023-05-19T02:24:34.274Z,5.23
2023-05-19T02:27:01.219Z,4.60
2023-05-19T02:29:28.221Z,4.70
2023-05-19T02:31:55.213Z,5.10
2023-05-19T02:34:23.557Z,4.30
2023-05-19T02:36:50.558Z,4.23
2023-05-19T02:39:18.043Z,4.37
2023-05-19T02:41:44.962Z,3.93
2023-05-19T02:44:11.895Z,3.50
2023-05-19T02:46:38.881Z,4.67
2023-05-19T02:49:05.961Z,3.80
2023-05-19T02:51:34.208Z,4.20
2023-05-19T02:54:01.115Z,4.13
2023-05-19T02:56:28.166Z,12.50
2023-05-19T02:58:55.109Z,8.93
2023-05-19T03:01:23.050Z,6.37
2023-05-19T03:03:50.256Z,4.60
2023-05-19T03:06:17.951Z,5.57
2023-05-19T03:08:46.262Z,7.17
2023-05-19T03:11:13.226Z,5.87
2023-05-19T03:13:40.136Z,5.50
2023-05-19T03:16:08.119Z,5.13
2023-05-19T03:18:36.002Z,5.27
2023-05-19T03:21:03.220Z,6.07
2023-05-19T03:23:30.152Z,6.97
2023-05-19T03:25:58.398Z,6.03
2023-05-19T03:28:27.233Z,6.47
2023-05-19T03:30:54.263Z,4.83
2023-05-19T03:33:21.410Z,5.43
2023-05-19T03:35:48.386Z,5.53
2023-05-19T03:38:15.491Z,4.80
2023-05-19T03:40:42.511Z,5.10
2023-05-19T03:43:10.851Z,4.63
2023-05-19T03:45:37.818Z,5.23
2023-05-19T03:48:05.996Z,5.00
2023-05-19T03:50:33.867Z,4.87
2023-05-19T03:53:01.072Z,4.73
2023-05-19T03:55:29.808Z,5.13
2023-05-19T03:57:57.103Z,4.67
2023-05-19T04:00:25.392Z,4.60
2023-05-19T04:02:52.470Z,4.50
2023-05-19T04:05:19.486Z,5.17
2023-05-19T04:07:46.732Z,4.50
2023-05-19T04:10:14.054Z,4.93
2023-05-19T04:12:41.183Z,4.80
2023-05-19T04:15:11.412Z,4.60
2023-05-19T04:17:40.425Z,4.93
2023-05-19T04:20:08.362Z,4.57
2023-05-19T04:22:35.292Z,4.00
2023-05-19T04:25:03.958Z,4.63
2023-05-19T04:27:31.969Z,5.60
2023-05-19T04:29:59.343Z,4.57
2023-05-19T04:32:26.496Z,4.50
2023-05-19T04:34:54.756Z,5.23
2023-05-19T04:37:22.158Z,4.90
2023-05-19T04:39:49.117Z,4.63
2023-05-19T04:42:19.143Z,4.63
2023-05-19T04:44:46.409Z,4.07
2023-05-19T04:47:14.867Z,4.07
2023-05-19T04:49:41.873Z,4.67
2023-05-19T04:52:11.132Z,4.37
2023-05-19T04:54:39.898Z,4.20
2023-05-19T04:57:07.049Z,4.77
2023-05-19T04:59:34.071Z,4.90
2023-05-19T05:02:01.137Z,4.20
2023-05-19T05:04:28.357Z,4.40
2023-05-19T05:06:55.451Z,4.10
2023-05-19T05:09:23.758Z,4.17
2023-05-19T05:11:51.675Z,4.33
2023-05-19T05:14:19.575Z,4.47
2023-05-19T05:16:47.474Z,4.80
2023-05-19T05:19:15.281Z,5.27
2023-05-19T05:21:43.161Z,4.53
2023-05-19T05:24:12.290Z,4.60
2023-05-19T05:26:41.634Z,4.60
2023-05-19T05:29:09.992Z,4.10
2023-05-19T05:31:37.633Z,5.87
2023-05-19T05:34:04.727Z,5.20
2023-05-19T05:36:31.872Z,5.33
2023-05-19T05:38:59.490Z,5.27
2023-05-19T05:41:27.347Z,5.00
2023-05-19T05:43:55.810Z,4.97
2023-05-19T05:46:22.818Z,5.17
2023-05-19T05:48:50.648Z,4.37
2023-05-19T05:51:21.090Z,5.20
2023-05-19T05:53:53.864Z,6.17
2023-05-19T05:56:22.031Z,4.97
2023-05-19T05:58:49.597Z,9.43
2023-05-19T06:01:17.937Z,5.87
2023-05-19T06:03:45.098Z,5.23
2023-05-19T06:06:13.224Z,4.60
2023-05-19T06:08:40.257Z,4.33
2023-05-19T06:11:09.099Z,4.40
2023-05-19T06:13:36.508Z,4.33
2023-05-19T06:16:03.992Z,4.33
2023-05-19T06:18:32.425Z,5.07
2023-05-19T06:20:59.352Z,4.90
2023-05-19T06:23:28.910Z,4.70
2023-05-19T06:25:56.521Z,6.43
2023-05-19T06:28:23.457Z,5.00
2023-05-19T06:30:50.407Z,4.60
2023-05-19T06:33:17.340Z,4.90
2023-05-19T06:35:45.814Z,4.63
2023-05-19T06:38:12.815Z,4.87
2023-05-19T06:40:40.174Z,4.80
2023-05-19T06:43:07.124Z,4.57
2023-05-19T06:45:34.189Z,3.83
2023-05-19T06:48:01.343Z,3.97
2023-05-19T06:50:28.438Z,4.10
2023-05-19T06:52:58.187Z,3.53
2023-05-19T06:55:25.529Z,3.50
2023-05-19T06:57:52.486Z,3.80
2023-05-19T07:00:31.159Z,3.30
2023-05-19T07:02:58.108Z,3.80
2023-05-19T07:05:25.101Z,3.80
2023-05-19T07:07:52.014Z,4.53
2023-05-19T07:10:21.865Z,4.23
2023-05-19T07:12:48.786Z,3.30
2023-05-19T07:15:15.945Z,3.87
2023-05-19T07:17:42.914Z,4.00
2023-05-19T07:20:11.137Z,3.93
2023-05-19T07:22:39.658Z,3.77
2023-05-19T07:25:07.680Z,5.27
2023-05-19T07:27:36.596Z,4.80
2023-05-19T07:30:04.488Z,4.03
2023-05-19T07:32:31.777Z,3.30
2023-05-19T07:34:58.993Z,3.77
2023-05-19T07:37:26.338Z,3.10
2023-05-19T07:39:53.328Z,3.10
2023-05-19T07:42:20.346Z,3.30
2023-05-19T07:44:48.557Z,3.37
2023-05-19T07:47:15.489Z,3.30
2023-05-19T07:49:42.475Z,3.30
2023-05-19T07:52:09.507Z,3.80
2023-05-19T07:54:36.454Z,3.40
2023-05-19T07:57:03.930Z,3.50
2023-05-19T07:59:31.366Z,3.10
2023-05-19T08:01:59.827Z,3.17
2023-05-19T08:04:27.771Z,3.10
2023-05-19T08:06:55.025Z,2.63
2023-05-19T08:09:22.121Z,2.83
2023-05-19T08:11:49.840Z,2.93
2023-05-19T08:14:17.025Z,3.30
2023-05-19T08:16:45.962Z,2.87
2023-05-19T08:19:14.406Z,3.20
2023-05-19T08:21:42.402Z,3.30
2023-05-19T08:24:09.487Z,3.10
2023-05-19T08:26:37.750Z,3.13
2023-05-19T08:29:05.257Z,3.40
2023-05-19T08:31:32.595Z,4.50
2023-05-19T08:33:59.782Z,3.87
2023-05-19T08:36:28.706Z,3.20
2023-05-19T08:38:55.793Z,4.40
2023-05-19T08:41:23.263Z,4.13
2023-05-19T08:43:50.691Z,4.30
2023-05-19T08:46:18.581Z,3.27
2023-05-19T08:48:48.538Z,3.63
2023-05-19T08:51:32.096Z,4.07
2023-05-19T08:54:12.357Z,2.93
2023-05-19T08:56:39.585Z,3.40
2023-05-19T08:59:08.100Z,3.43
2023-05-19T09:04:07.497Z,2.80
2023-05-19T09:06:35.939Z,2.70
2023-05-19T09:09:04.322Z,2.60
2023-05-19T09:11:31.327Z,2.65
2023-05-19T09:13:58.423Z,2.80
2023-05-19T09:16:27.960Z,2.50
2023-05-19T09:18:58.373Z,3.13
2023-05-19T09:21:32.268Z,2.50
2023-05-19T09:24:06.107Z,3.00
2023-05-19T09:26:38.299Z,2.70
2023-05-19T09:29:11.914Z,2.72
2023-05-19T09:31:38.910Z,2.40
2023-05-19T09:34:13.206Z,2.63
2023-05-19T09:36:41.493Z,2.92
2023-05-19T09:39:17.061Z,2.30
2023-05-19T09:41:45.092Z,2.60
2023-05-19T09:44:23.373Z,2.30
2023-05-19T09:46:51.735Z,2.90
2023-05-19T09:49:23.992Z,2.80
2023-05-19T09:51:53.869Z,5.22
2023-05-19T09:54:23.648Z,2.72
2023-05-19T09:57:01.126Z,3.92
2023-05-19T09:59:32.440Z,2.58
2023-05-19T10:02:02.423Z,4.90
2023-05-19T10:04:31.300Z,2.63
2023-05-19T10:06:59.527Z,5.72
2023-05-19T10:09:29.482Z,2.90
2023-05-19T10:11:58.572Z,2.70
2023-05-19T10:14:28.365Z,2.30
2023-05-19T10:16:57.505Z,2.17
2023-05-19T10:19:28.040Z,2.22
2023-05-19T10:21:56.183Z,2.03
2023-05-19T10:24:23.134Z,1.93
2023-05-19T10:26:58.327Z,2.20
2023-05-19T10:29:29.974Z,2.00
2023-05-19T10:32:02.897Z,2.50
2023-05-19T10:35:05.211Z,2.10
2023-05-19T10:37:45.106Z,2.60
2023-05-19T10:40:20.928Z,2.50
2023-05-19T10:43:05.176Z,2.50
2023-05-19T10:45:40.516Z,2.00
2023-05-19T10:48:11.426Z,1.87
2023-05-19T10:50:38.827Z,2.00
2023-05-19T10:53:14.585Z,2.10
2023-05-19T10:55:55.792Z,2.20
2023-05-19T10:58:50.773Z,2.10
2023-05-19T11:01:19.802Z,2.17
2023-05-19T11:03:49.333Z,2.00
2023-05-19T11:06:27.885Z,2.33
2023-05-19T11:08:58.173Z,2.60
2023-05-19T11:11:25.169Z,2.17
2023-05-19T11:13:56.154Z,2.47
2023-05-19T11:16:32.006Z,2.33
2023-05-19T11:19:00.928Z,1.80
2023-05-19T11:21:43.357Z,2.17
2023-05-19T11:24:10.449Z,1.80
2023-05-19T11:26:42.772Z,1.87
2023-05-19T11:29:11.826Z,2.50
2023-05-19T11:31:39.648Z,2.00
2023-05-19T11:34:08.061Z,4.17
2023-05-19T11:36:37.372Z,1.97
2023-05-19T11:39:05.962Z,2.87
2023-05-19T11:41:32.957Z,1.90
2023-05-19T11:43:59.921Z,2.17
2023-05-19T11:46:28.587Z,4.07
2023-05-19T11:48:55.674Z,4.60
2023-05-19T11:51:22.795Z,4.67
2023-05-19T11:53:50.982Z,2.63
2023-05-19T11:56:17.954Z,1.80
2023-05-19T11:58:44.870Z,1.77
2023-05-19T12:01:11.859Z,1.87
2023-05-19T12:03:40.317Z,2.00
2023-05-19T12:06:08.575Z,2.10
2023-05-19T12:08:36.630Z,2.30
2023-05-19T12:11:04.992Z,2.30
2023-05-19T12:13:33.032Z,2.33
2023-05-19T12:16:01.292Z,2.17
2023-05-19T12:18:31.440Z,2.37
2023-05-19T12:20:59.919Z,2.40
2023-05-19T12:23:30.571Z,2.17
2023-05-19T12:25:58.505Z,2.40
2023-05-19T12:28:25.486Z,2.17
2023-05-19T12:30:53.412Z,2.03
2023-05-19T12:33:22.765Z,2.63
2023-05-19T12:35:50.498Z,2.47
2023-05-19T12:38:19.922Z,1.73
2023-05-19T12:40:46.871Z,1.93
2023-05-19T12:43:20.919Z,2.10
2023-05-19T12:45:47.985Z,2.23
2023-05-19T12:48:16.676Z,2.60
2023-05-19T12:50:48.468Z,2.17
2023-05-19T12:53:15.750Z,2.43
2023-05-19T12:55:45.570Z,1.77
2023-05-19T12:58:13.383Z,2.00
2023-05-19T13:00:42.274Z,2.00
2023-05-19T13:03:16.472Z,1.90
2023-05-19T13:05:46.525Z,1.80
2023-05-19T13:08:16.101Z,2.00
2023-05-19T13:10:46.194Z,2.00
2023-05-19T13:13:31.739Z,2.33
2023-05-19T13:16:17.076Z,2.03
2023-05-19T13:19:03.237Z,1.87
2023-05-19T13:21:30.246Z,1.83
2023-05-19T13:23:57.204Z,1.93
2023-05-19T13:26:25.457Z,2.60
2023-05-19T13:28:52.430Z,1.80
2023-05-19T13:31:19.572Z,1.77
2023-05-19T13:33:46.568Z,2.23
2023-05-19T13:36:13.561Z,2.33
2023-05-19T13:38:41.829Z,2.10
2023-05-19T13:41:10.665Z,2.00
2023-05-19T13:43:39.143Z,2.00
2023-05-19T13:46:06.233Z,1.80
2023-05-19T13:48:33.174Z,2.53
2023-05-19T13:51:00.086Z,2.03
2023-05-19T13:53:27.266Z,3.17
2023-05-19T13:55:55.924Z,1.70
2023-05-19T13:58:51.374Z,1.93
2023-05-19T14:01:26.399Z,1.77
2023-05-19T14:03:53.599Z,1.60
2023-05-19T14:06:20.754Z,2.10
2023-05-19T14:08:47.744Z,1.83
2023-05-19T14:11:18.357Z,1.70
2023-05-19T14:13:45.375Z,1.67
2023-05-19T14:16:12.364Z,1.83
2023-05-19T14:18:40.861Z,1.30
2023-05-19T14:21:08.181Z,2.83
2023-05-19T14:23:35.408Z,2.07
2023-05-19T14:26:02.474Z,1.60
2023-05-19T14:28:29.545Z,1.80
2023-05-19T14:30:56.595Z,1.77
2023-05-19T14:33:23.552Z,2.30
2023-05-19T14:35:53.157Z,1.80
2023-05-19T14:38:20.205Z,1.60
2023-05-19T14:40:48.420Z,2.20
2023-05-19T14:43:15.421Z,2.17
2023-05-19T14:45:42.508Z,1.90
2023-05-19T14:48:11.694Z,7.43
2023-05-19T14:50:39.026Z,2.00
2023-05-19T14:53:07.362Z,1.90
2023-05-19T14:55:34.306Z,2.13
2023-05-19T14:58:01.409Z,1.90
2023-05-19T15:00:28.376Z,1.50
2023-05-19T15:02:56.023Z,1.60
2023-05-19T15:05:24.126Z,2.03
2023-05-19T15:07:51.695Z,2.13
2023-05-19T15:10:24.161Z,1.80
2023-05-19T15:12:51.171Z,1.97
2023-05-19T15:15:18.241Z,1.70
2023-05-19T15:17:46.803Z,3.10
2023-05-19T15:20:13.880Z,3.27
2023-05-19T15:22:40.911Z,2.43
2023-05-19T15:25:09.886Z,1.97
2023-05-19T15:27:38.207Z,2.47
2023-05-19T15:30:06.934Z,1.60
2023-05-19T15:32:33.998Z,2.10
2023-05-19T15:35:01.053Z,1.83
2023-05-19T15:37:28.019Z,2.33
2023-05-19T15:39:55.028Z,2.23
2023-05-19T15:42:21.988Z,2.10
2023-05-19T15:44:50.321Z,2.10
2023-05-19T15:47:17.354Z,2.10
2023-05-19T15:49:44.318Z,2.00
2023-05-19T15:52:11.272Z,1.93
2023-05-19T15:54:38.165Z,1.90
2023-05-19T15:57:05.724Z,1.97
2023-05-19T15:59:32.752Z,1.97
2023-05-19T16:02:01.203Z,1.73
2023-05-19T16:04:28.249Z,1.63
2023-05-19T16:06:55.433Z,1.60
2023-05-19T16:09:22.406Z,1.87
2023-05-19T16:11:49.606Z,1.73
2023-05-19T16:14:16.520Z,1.93
2023-05-19T16:16:44.453Z,1.50
2023-05-19T16:19:12.949Z,1.90
2023-05-19T16:21:39.900Z,3.10
2023-05-19T16:24:07.211Z,1.83
2023-05-19T16:26:34.463Z,1.83
2023-05-19T16:29:01.458Z,2.10
2023-05-19T16:31:28.514Z,2.17
2023-05-19T16:33:55.507Z,2.13
2023-05-19T16:36:23.931Z,2.20
2023-05-19T16:38:50.842Z,1.83
2023-05-19T16:41:17.831Z,1.73
2023-05-19T16:43:44.823Z,1.73
2023-05-19T16:46:12.270Z,2.30
2023-05-19T16:48:39.324Z,1.93
2023-05-19T16:51:06.370Z,1.80
2023-05-19T16:53:34.670Z,1.70
2023-05-19T16:56:01.906Z,1.77
2023-05-19T16:58:30.911Z,2.10
2023-05-19T17:00:58.198Z,2.20
2023-05-19T17:03:25.355Z,1.80
2023-05-19T17:05:52.478Z,1.77
2023-05-19T17:08:19.441Z,2.10
2023-05-19T17:10:48.935Z,2.43
2023-05-19T17:13:16.079Z,2.70
2023-05-19T17:15:43.584Z,2.03
2023-05-19T17:18:12.424Z,2.77
2023-05-19T17:20:39.552Z,2.33
2023-05-19T17:23:06.861Z,2.40
2023-05-19T17:25:34.594Z,2.30
2023-05-19T17:28:03.006Z,3.00
2023-05-19T17:30:29.929Z,2.27
2023-05-19T17:32:58.929Z,2.20
2023-05-19T17:35:28.257Z,2.90
2023-05-19T17:37:55.602Z,2.03
2023-05-19T17:40:22.544Z,1.80
2023-05-19T17:42:49.481Z,2.43
2023-05-19T17:45:18.156Z,2.10
2023-05-19T17:47:45.257Z,2.03
2023-05-19T17:50:12.277Z,2.00
2023-05-19T17:52:40.777Z,2.13
2023-05-19T17:55:10.962Z,2.10
2023-05-19T17:57:43.312Z,2.07
2023-05-19T18:00:12.492Z,1.97
2023-05-19T18:02:42.087Z,1.87
2023-05-19T18:05:11.116Z,1.60
2023-05-19T18:07:41.520Z,1.73
2023-05-19T18:10:10.993Z,2.53
2023-05-19T18:12:37.959Z,2.27
2023-05-19T18:15:06.595Z,2.77
2023-05-19T18:17:33.631Z,2.43
2023-05-19T18:20:02.179Z,2.23
2023-05-19T18:22:29.400Z,2.00
2023-05-19T18:24:57.541Z,1.70
2023-05-19T18:27:24.646Z,2.53
2023-05-19T18:29:51.609Z,2.23
2023-05-19T18:32:18.605Z,2.17
2023-05-19T18:34:45.699Z,2.03
2023-05-19T18:37:13.953Z,2.23
2023-05-19T18:39:41.002Z,2.60
2023-05-19T18:42:07.972Z,2.23
2023-05-19T18:44:34.926Z,2.20
2023-05-19T18:47:01.942Z,2.03
2023-05-19T18:49:29.014Z,2.27
2023-05-19T18:51:56.018Z,2.30
2023-05-19T18:54:24.732Z,2.20
2023-05-19T18:56:51.756Z,2.00
2023-05-19T18:59:18.865Z,1.90
2023-05-19T19:01:45.997Z,2.13
2023-05-19T19:04:14.670Z,1.90
2023-05-19T19:06:42.046Z,2.30
2023-05-19T19:09:09.616Z,2.43
2023-05-19T19:11:38.139Z,1.80
2023-05-19T19:14:05.088Z,2.07
2023-05-19T19:16:32.264Z,1.80
2023-05-19T19:18:59.366Z,2.30
2023-05-19T19:21:26.359Z,1.83
2023-05-19T19:23:56.550Z,2.23
2023-05-19T19:26:28.783Z,1.90
2023-05-19T19:28:57.470Z,2.83
2023-05-19T19:31:28.757Z,2.10
2023-05-19T19:33:58.861Z,2.23
2023-05-19T19:36:26.577Z,2.10
2023-05-19T19:38:53.592Z,2.00
2023-05-19T19:41:21.150Z,2.00
2023-05-19T19:43:48.104Z,2.07
2023-05-19T19:46:16.394Z,2.33
2023-05-19T19:48:43.517Z,2.17
2023-05-19T19:51:10.428Z,2.30
2023-05-19T19:53:37.388Z,1.93
2023-05-19T19:56:05.908Z,2.50
2023-05-19T19:58:32.863Z,2.57
2023-05-19T20:01:02.658Z,2.43
2023-05-19T20:03:31.767Z,3.57
2023-05-19T20:05:58.854Z,2.57
2023-05-19T20:08:26.361Z,1.90
2023-05-19T20:10:53.798Z,2.00
2023-05-19T20:13:21.147Z,2.17
2023-05-19T20:15:48.192Z,2.17
2023-05-19T20:18:15.335Z,2.47
2023-05-19T20:20:43.663Z,2.43
2023-05-19T20:23:10.803Z,2.03
2023-05-19T20:25:58.510Z,1.80
2023-05-19T20:28:29.751Z,2.37
2023-05-19T20:30:56.725Z,2.37
2023-05-19T20:33:23.910Z,2.60
2023-05-19T20:35:52.224Z,2.20
2023-05-19T20:38:19.241Z,1.90
2023-05-19T20:40:47.541Z,3.17
2023-05-19T20:43:14.605Z,2.00
2023-05-19T20:45:43.112Z,1.90
2023-05-19T20:48:11.265Z,1.83
2023-05-19T20:50:39.408Z,1.93
2023-05-19T20:53:07.968Z,1.70
2023-05-19T20:55:37.818Z,2.00
2023-05-19T20:58:04.822Z,1.80
2023-05-19T21:00:32.202Z,2.00
2023-05-19T21:02:59.703Z,2.00
2023-05-19T21:05:26.791Z,2.57
2023-05-19T21:07:53.815Z,5.87
2023-05-19T21:10:22.118Z,2.20
2023-05-19T21:12:49.061Z,2.20
2023-05-19T21:15:16.136Z,1.90
2023-05-19T21:17:43.066Z,1.60
2023-05-19T21:20:11.332Z,2.10
2023-05-19T21:22:38.289Z,1.70
2023-05-19T21:25:06.691Z,1.60
2023-05-19T21:27:36.175Z,2.00
2023-05-19T21:30:03.592Z,2.10
2023-05-19T21:32:32.059Z,1.67
2023-05-19T21:34:59.889Z,1.73
2023-05-19T21:37:26.900Z,1.77
2023-05-19T21:39:53.869Z,1.97
2023-05-19T21:42:20.790Z,4.10
2023-05-19T21:44:49.085Z,2.33
2023-05-19T21:47:16.286Z,2.07
2023-05-19T21:49:43.453Z,1.70
2023-05-19T21:52:10.787Z,1.70
2023-05-19T21:54:37.843Z,2.10
2023-05-19T21:57:05.477Z,1.87
2023-05-19T21:59:32.421Z,1.63
2023-05-19T22:02:00.726Z,2.47
2023-05-19T22:04:31.281Z,1.77
2023-05-19T22:06:58.645Z,1.70
2023-05-19T22:09:25.674Z,2.17
2023-05-19T22:11:52.570Z,1.63
2023-05-19T22:14:19.491Z,1.40
2023-05-19T22:16:47.358Z,1.70
2023-05-19T22:19:16.072Z,1.43
2023-05-19T22:21:42.925Z,1.90
2023-05-19T22:24:09.866Z,1.93
2023-05-19T22:26:36.936Z,1.30
2023-05-19T22:29:03.868Z,1.50
2023-05-19T22:31:30.884Z,2.03
2023-05-19T22:33:57.863Z,2.03
2023-05-19T22:36:26.170Z,1.60
2023-05-19T22:38:53.176Z,1.60
2023-05-19T22:41:20.105Z,1.80
2023-05-19T22:43:47.001Z,1.73
2023-05-19T22:46:14.044Z,1.67
2023-05-19T22:48:41.149Z,1.90
2023-05-19T22:51:08.128Z,1.50
2023-05-19T22:53:36.356Z,1.60
2023-05-19T22:56:03.444Z,1.73
2023-05-19T22:58:30.418Z,1.67
2023-05-19T23:00:57.470Z,2.00
2023-05-19T23:03:24.390Z,1.93
2023-05-19T23:05:51.313Z,1.57
2023-05-19T23:08:18.254Z,1.77
2023-05-19T23:10:46.497Z,1.47
2023-05-19T23:13:15.288Z,1.70
2023-05-19T23:15:42.270Z,1.70
2023-05-19T23:18:09.289Z,2.07
2023-05-19T23:20:36.384Z,1.30
2023-05-19T23:23:03.385Z,1.50
2023-05-19T23:25:30.330Z,1.70
2023-05-19T23:27:58.741Z,1.60
2023-05-19T23:30:25.747Z,1.40
2023-05-19T23:32:52.962Z,1.70
2023-05-19T23:35:20.613Z,1.73
2023-05-19T23:37:47.818Z,1.80
2023-05-19T23:40:15.456Z,1.43
2023-05-19T23:42:44.204Z,1.43
2023-05-19T23:45:12.798Z,1.57
2023-05-19T23:47:39.757Z,1.47
2023-05-19T23:50:07.542Z,1.50
2023-05-19T23:52:34.521Z,1.90
2023-05-19T23:55:03.185Z,1.37
2023-05-19T23:57:30.210Z,1.47
2023-05-19T23:59:57.175Z,1.90
